Terminal Aerodrome Forecast
Issued by NWS

Home | Current Version | Previous Version | Text Only | Print | Product List | Glossary Off
Versions: 1 2 3 4 5 6 7 8 9 10 11 12 13 14 15 16 17 18 19 20 21 22 23 24 25 26 27 28 29 30 31 32 33 34 35 36 37 38 39 40 41 42 43

000
FTUS43 KLOT 220500
TAFORD
TAF
KORD 220527Z 2206/2312 12004KT 6SM BR VCTS SCT035 BKN050CB OVC100
      TEMPO 2206/2207 2SM +TSRA BR SCT025 OVC035CB
     FM220900 VRB04KT 5SM BR VCSH BKN040 OVC100
     FM221200 22004KT 6SM BR BKN040
     FM221600 25006KT P6SM SCT040 BKN100
     FM222000 06007KT P6SM SCT050 BKN100 PROB30 2220/2223 4SM TSRA
      OVC040CB
     FM230700 05003KT 5SM BR SCT040 BKN250=

USA.gov is the U.S. government's official web portal to all federal, state and local government web resources and services.